createdAt,value
2019-04-16T00:01:45.617Z,4.37
2019-04-16T00:04:31.515Z,4.07
2019-04-16T00:07:19.926Z,4.43
2019-04-16T00:10:06.207Z,4.43
2019-04-16T00:12:56.668Z,4.23
2019-04-16T00:15:26.534Z,4.07
2019-04-16T00:17:56.411Z,4.40
2019-04-16T00:20:26.221Z,4.30
2019-04-16T00:23:04.922Z,4.10
2019-04-16T00:25:35.610Z,4.07
2019-04-16T00:28:05.594Z,4.43
2019-04-16T00:30:36.277Z,4.13
2019-04-16T00:33:07.626Z,3.90
2019-04-16T00:35:38.927Z,3.60
2019-04-16T00:38:08.754Z,4.13
2019-04-16T00:40:38.559Z,4.40
2019-04-16T00:43:10.134Z,4.03
2019-04-16T00:45:39.938Z,4.27
2019-04-16T00:48:11.191Z,3.87
2019-04-16T00:50:40.990Z,4.30
2019-04-16T00:53:10.796Z,3.73
2019-04-16T00:55:42.361Z,4.03
2019-04-16T00:58:12.326Z,4.27
2019-04-16T01:00:42.142Z,3.77
2019-04-16T01:03:12.012Z,4.20
2019-04-16T01:05:41.813Z,3.97
2019-04-16T01:08:12.144Z,3.80
2019-04-16T01:10:42.007Z,4.17
2019-04-16T01:13:11.793Z,3.67
2019-04-16T01:15:41.679Z,3.90
2019-04-16T01:18:11.479Z,3.80
2019-04-16T01:20:43.281Z,3.83
2019-04-16T01:23:17.539Z,3.47
2019-04-16T01:25:44.498Z,4.10
2019-04-16T01:28:16.703Z,4.60
2019-04-16T01:30:57.664Z,3.90
2019-04-16T01:33:46.761Z,4.07
2019-04-16T01:36:28.605Z,4.30
2019-04-16T01:39:14.738Z,3.77
2019-04-16T01:41:32.185Z,4.10
2019-04-16T01:44:01.984Z,4.50
2019-04-16T01:46:32.839Z,4.13
2019-04-16T01:49:09.791Z,3.90
2019-04-16T01:51:37.968Z,3.83
2019-04-16T01:54:08.053Z,4.23
2019-04-16T01:56:37.850Z,4.43
2019-04-16T01:59:07.800Z,4.07
2019-04-16T02:01:37.606Z,4.17
2019-04-16T02:04:07.734Z,3.90
2019-04-16T02:06:37.631Z,3.80
2019-04-16T02:09:21.930Z,4.03
2019-04-16T02:11:41.441Z,4.00
2019-04-16T02:14:14.578Z,3.87
2019-04-16T02:16:43.764Z,4.10
2019-04-16T02:19:13.591Z,4.30
2019-04-16T02:21:43.371Z,3.77
2019-04-16T02:24:13.242Z,4.00
2019-04-16T02:26:43.399Z,3.80
2019-04-16T02:29:13.222Z,3.60
2019-04-16T02:31:59.861Z,3.10
2019-04-16T02:34:29.743Z,3.87
2019-04-16T02:37:02.453Z,3.57
2019-04-16T02:39:47.347Z,3.60
2019-04-16T02:42:02.790Z,4.10
2019-04-16T02:44:32.731Z,3.77
2019-04-16T02:47:06.145Z,4.00
2019-04-16T02:49:34.348Z,3.87
2019-04-16T02:52:20.537Z,3.90
2019-04-16T02:55:16.266Z,3.87
2019-04-16T02:58:02.594Z,3.73
2019-04-16T03:00:50.479Z,3.73
2019-04-16T03:03:24.902Z,3.30
2019-04-16T03:06:00.629Z,3.80
2019-04-16T03:08:28.222Z,3.77
2019-04-16T03:10:58.134Z,3.63
2019-04-16T03:13:28.029Z,3.67
2019-04-16T03:16:21.838Z,3.57
2019-04-16T03:19:01.466Z,4.10
2019-04-16T03:21:31.242Z,3.97
2019-04-16T03:24:00.995Z,3.40
2019-04-16T03:26:30.751Z,3.70
2019-04-16T03:29:00.518Z,3.87
2019-04-16T03:31:30.324Z,3.53
2019-04-16T03:34:01.677Z,3.67
2019-04-16T03:36:31.442Z,3.80
2019-04-16T03:39:01.203Z,3.90
2019-04-16T03:41:31.002Z,3.30
2019-04-16T03:44:03.642Z,3.87
2019-04-16T03:46:32.218Z,3.90
2019-04-16T03:49:02.017Z,4.00
2019-04-16T03:51:32.640Z,3.80
2019-04-16T03:54:05.086Z,3.67
2019-04-16T03:56:34.993Z,3.97
2019-04-16T03:59:10.007Z,3.57
2019-04-16T04:01:36.587Z,3.70
2019-04-16T04:04:06.377Z,3.57
2019-04-16T04:06:36.475Z,3.43
2019-04-16T04:09:08.478Z,4.03
2019-04-16T04:11:41.249Z,3.83
2019-04-16T04:14:11.316Z,3.53
2019-04-16T04:16:41.091Z,3.83
2019-04-16T04:19:14.101Z,3.47
2019-04-16T04:21:42.379Z,4.00
2019-04-16T04:24:12.158Z,3.77
2019-04-16T04:26:42.438Z,3.53
2019-04-16T04:29:13.115Z,3.83
2019-04-16T04:31:43.754Z,3.70
2019-04-16T04:34:16.947Z,3.83
2019-04-16T04:36:45.624Z,3.50
2019-04-16T04:39:16.022Z,3.73
2019-04-16T04:41:46.222Z,3.83
2019-04-16T04:44:16.252Z,4.00
2019-04-16T04:46:46.937Z,3.80
2019-04-16T04:49:17.170Z,3.57
2019-04-16T04:51:46.930Z,3.60
2019-04-16T04:54:22.042Z,3.67
2019-04-16T04:56:48.309Z,3.50
2019-04-16T04:59:18.075Z,3.90
2019-04-16T05:01:47.839Z,4.07
2019-04-16T05:04:33.243Z,3.83
2019-04-16T05:07:05.540Z,4.00
2019-04-16T05:09:36.828Z,3.67
2019-04-16T05:12:08.294Z,3.30
2019-04-16T05:14:50.770Z,3.97
2019-04-16T05:17:21.284Z,3.67
2019-04-16T05:19:51.046Z,3.80
2019-04-16T05:22:22.225Z,3.90
2019-04-16T05:24:52.350Z,3.83
2019-04-16T05:27:22.319Z,3.70
2019-04-16T05:29:52.115Z,3.43
2019-04-16T05:32:25.887Z,3.70
2019-04-16T05:34:55.988Z,3.53
2019-04-16T05:37:25.777Z,3.77
2019-04-16T05:39:58.588Z,3.73
2019-04-16T05:42:27.023Z,3.17
2019-04-16T05:44:56.877Z,3.73
2019-04-16T05:47:26.620Z,3.20
2019-04-16T05:49:58.052Z,3.40
2019-04-16T05:52:28.130Z,3.90
2019-04-16T05:55:04.893Z,3.27
2019-04-16T05:57:36.791Z,3.87
2019-04-16T06:00:12.412Z,3.60
2019-04-16T06:02:42.971Z,3.60
2019-04-16T06:05:12.894Z,3.73
2019-04-16T06:07:42.694Z,3.70
2019-04-16T06:10:16.872Z,3.70
2019-04-16T06:13:06.145Z,3.60
2019-04-16T06:15:54.001Z,3.33
2019-04-16T06:18:37.141Z,3.30
2019-04-16T06:21:25.844Z,3.70
2019-04-16T06:24:03.562Z,3.30
2019-04-16T06:26:52.839Z,3.67
2019-04-16T06:29:51.618Z,3.80
2019-04-16T06:32:43.952Z,3.50
2019-04-16T06:35:42.959Z,3.20
2019-04-16T06:38:13.459Z,3.70
2019-04-16T06:40:49.047Z,3.60
2019-04-16T06:43:26.180Z,6.97
2019-04-16T06:46:13.459Z,8.90
2019-04-16T06:49:01.471Z,8.53
2019-04-16T06:51:49.254Z,8.63
2019-04-16T06:54:33.134Z,8.60
2019-04-16T06:57:13.986Z,8.27
2019-04-16T06:59:54.934Z,8.87
2019-04-16T07:02:43.084Z,8.73
2019-04-16T07:05:31.931Z,8.70
2019-04-16T07:08:18.409Z,9.53
2019-04-16T07:10:59.318Z,9.57
2019-04-16T07:13:29.098Z,10.17
2019-04-16T07:15:58.920Z,9.70
2019-04-16T07:18:28.830Z,7.30
2019-04-16T07:20:59.190Z,7.80
2019-04-16T07:23:29.117Z,7.13
2019-04-16T07:26:03.053Z,8.30
2019-04-16T07:28:48.567Z,7.30
2019-04-16T07:31:33.552Z,6.50
2019-04-16T07:34:02.923Z,6.70
2019-04-16T07:36:42.650Z,7.63
2019-04-16T07:39:29.722Z,7.20
2019-04-16T07:42:11.761Z,6.47
2019-04-16T07:44:46.950Z,6.13
2019-04-16T07:47:35.832Z,6.50
2019-04-16T07:50:29.487Z,5.73
2019-04-16T07:53:13.556Z,6.13
2019-04-16T07:55:48.146Z,5.83
2019-04-16T07:58:18.445Z,5.90
2019-04-16T08:00:48.673Z,5.80
2019-04-16T08:03:18.450Z,6.17
2019-04-16T08:05:48.278Z,5.83
2019-04-16T08:08:24.289Z,6.00
2019-04-16T08:10:50.910Z,6.50
2019-04-16T08:13:21.762Z,5.20
2019-04-16T08:15:52.496Z,5.97
2019-04-16T08:18:23.475Z,6.27
2019-04-16T08:21:01.173Z,6.43
2019-04-16T08:23:28.586Z,5.63
2019-04-16T08:26:03.204Z,6.13
2019-04-16T08:28:32.570Z,5.73
2019-04-16T08:31:03.774Z,5.97
2019-04-16T08:33:35.007Z,5.70
2019-04-16T08:36:05.971Z,5.77
2019-04-16T08:38:35.738Z,5.83
2019-04-16T08:41:05.516Z,6.23
2019-04-16T08:43:35.329Z,5.40
2019-04-16T08:46:10.231Z,5.90
2019-04-16T08:48:36.686Z,6.37
2019-04-16T08:51:06.494Z,6.53
2019-04-16T08:53:36.538Z,5.77
2019-04-16T08:56:06.755Z,5.40
2019-04-16T08:58:38.395Z,6.17
2019-04-16T09:01:10.245Z,5.53
2019-04-16T09:03:54.552Z,5.57
2019-04-16T09:06:38.495Z,5.77
2019-04-16T09:09:42.350Z,6.00
2019-04-16T09:12:19.737Z,5.67
2019-04-16T09:14:57.659Z,5.70
2019-04-16T09:17:32.906Z,5.80
2019-04-16T09:20:15.266Z,6.40
2019-04-16T09:22:49.218Z,6.03
2019-04-16T09:25:38.994Z,5.67
2019-04-16T09:28:25.739Z,5.30
2019-04-16T09:31:23.525Z,6.17
2019-04-16T09:34:13.468Z,5.47
2019-04-16T09:37:01.411Z,5.73
2019-04-16T09:39:47.545Z,6.63
2019-04-16T09:42:17.311Z,5.23
2019-04-16T09:44:47.072Z,5.57
2019-04-16T09:47:16.865Z,4.77
2019-04-16T09:49:46.754Z,5.60
2019-04-16T09:52:16.523Z,5.57
2019-04-16T09:54:46.990Z,5.37
2019-04-16T09:57:17.133Z,5.60
2019-04-16T09:59:54.944Z,5.47
2019-04-16T10:02:27.687Z,5.97
2019-04-16T10:04:58.938Z,5.43
2019-04-16T10:07:29.070Z,4.80
2019-04-16T10:09:58.830Z,5.80
2019-04-16T10:12:28.657Z,5.37
2019-04-16T10:14:58.477Z,5.23
2019-04-16T10:17:28.256Z,5.47
2019-04-16T10:19:58.086Z,5.50
2019-04-16T10:22:28.032Z,5.60
2019-04-16T10:25:11.774Z,5.07
2019-04-16T10:27:47.479Z,4.80
2019-04-16T10:30:23.831Z,5.30
2019-04-16T10:32:55.377Z,5.50
2019-04-16T10:35:26.424Z,5.00
2019-04-16T10:37:58.509Z,5.10
2019-04-16T10:40:36.466Z,5.50
2019-04-16T10:43:25.464Z,5.17
2019-04-16T10:46:17.554Z,5.20
2019-04-16T10:49:09.205Z,5.37
2019-04-16T10:52:03.708Z,5.67
2019-04-16T10:54:38.643Z,5.40
2019-04-16T10:57:26.946Z,5.10
2019-04-16T11:00:22.330Z,5.27
2019-04-16T11:03:10.951Z,4.93
2019-04-16T11:05:43.845Z,5.17
2019-04-16T11:08:14.787Z,4.97
2019-04-16T11:10:45.103Z,5.67
2019-04-16T11:13:23.434Z,5.43
2019-04-16T11:15:53.593Z,5.93
2019-04-16T11:18:23.469Z,5.33
2019-04-16T11:20:53.600Z,5.43
2019-04-16T11:23:23.883Z,5.13
2019-04-16T11:25:53.967Z,5.90
2019-04-16T11:28:23.803Z,5.73
2019-04-16T11:30:57.547Z,5.67
2019-04-16T11:33:28.578Z,6.20
2019-04-16T11:35:58.574Z,5.47
2019-04-16T11:38:30.157Z,5.10
2019-04-16T11:40:59.950Z,6.10
2019-04-16T11:43:30.875Z,5.77
2019-04-16T11:46:01.634Z,5.67
2019-04-16T11:48:31.493Z,5.47
2019-04-16T11:51:01.379Z,5.80
2019-04-16T11:53:31.454Z,5.37
2019-04-16T11:56:01.349Z,5.33
2019-04-16T11:58:38.979Z,5.77
2019-04-16T12:01:23.775Z,5.97
2019-04-16T12:04:15.314Z,5.87
2019-04-16T12:06:54.654Z,5.40
2019-04-16T12:09:42.453Z,5.00
2019-04-16T12:12:20.163Z,5.37
2019-04-16T12:15:22.518Z,5.40
2019-04-16T12:18:17.648Z,6.03
2019-04-16T12:21:15.441Z,5.20
2019-04-16T12:24:06.312Z,5.40
2019-04-16T12:26:51.984Z,5.67
2019-04-16T12:29:50.630Z,5.57
2019-04-16T12:32:27.349Z,5.00
2019-04-16T12:35:20.808Z,5.13
2019-04-16T12:38:12.249Z,5.00
2019-04-16T12:40:59.764Z,5.40
2019-04-16T12:43:35.192Z,5.03
2019-04-16T12:46:25.938Z,5.33
2019-04-16T12:49:29.967Z,5.30
2019-04-16T12:52:22.296Z,4.80
2019-04-16T12:55:11.188Z,5.50
2019-04-16T12:58:00.857Z,5.27
2019-04-16T13:00:56.236Z,5.50
2019-04-16T13:03:41.729Z,5.23
2019-04-16T13:06:26.005Z,5.47
2019-04-16T13:09:13.315Z,5.20
2019-04-16T13:11:49.740Z,5.47
2019-04-16T13:15:01.078Z,5.07
2019-04-16T13:17:47.932Z,5.37
2019-04-16T13:20:36.930Z,5.40
2019-04-16T13:23:15.207Z,5.47
2019-04-16T13:26:02.393Z,5.40
2019-04-16T13:28:33.270Z,5.23
2019-04-16T13:31:03.591Z,5.83
2019-04-16T13:33:34.337Z,5.50
2019-04-16T13:36:04.890Z,5.70
2019-04-16T13:38:37.557Z,5.43
2019-04-16T13:41:09.467Z,5.53
2019-04-16T13:43:44.610Z,6.33
2019-04-16T13:46:14.375Z,5.57
2019-04-16T13:49:06.282Z,5.90
2019-04-16T13:51:36.177Z,6.23
2019-04-16T13:54:27.614Z,6.10
2019-04-16T13:56:59.307Z,6.20
2019-04-16T14:00:02.986Z,6.07
2019-04-16T14:02:47.856Z,6.70
2019-04-16T14:05:19.284Z,6.13
2019-04-16T14:07:49.283Z,6.50
2019-04-16T14:10:19.301Z,5.87
2019-04-16T14:12:49.264Z,5.80
2019-04-16T14:15:31.748Z,7.03
2019-04-16T14:17:59.066Z,6.50
2019-04-16T14:20:26.977Z,6.83
2019-04-16T14:22:56.820Z,6.33
2019-04-16T14:25:27.975Z,6.03
2019-04-16T14:28:02.087Z,6.07
2019-04-16T14:30:33.391Z,6.73
2019-04-16T14:33:07.347Z,5.60
2019-04-16T14:35:40.325Z,5.90
2019-04-16T14:38:11.358Z,6.20
2019-04-16T14:40:43.593Z,5.20
2019-04-16T14:43:15.575Z,5.73
2019-04-16T14:45:58.437Z,5.53
2019-04-16T14:48:19.683Z,5.60
2019-04-16T14:50:49.618Z,6.00
2019-04-16T14:53:43.550Z,6.00
2019-04-16T14:56:24.403Z,5.60
2019-04-16T14:59:03.317Z,5.43
2019-04-16T15:01:52.190Z,5.80
2019-04-16T15:04:33.217Z,6.83
2019-04-16T15:07:06.328Z,6.17
2019-04-16T15:09:41.762Z,5.50
2019-04-16T15:12:23.435Z,6.13
2019-04-16T15:14:59.017Z,5.53
2019-04-16T15:17:48.110Z,6.53
2019-04-16T15:20:36.381Z,5.90
2019-04-16T15:23:14.542Z,5.33
2019-04-16T15:25:53.744Z,5.10
2019-04-16T15:28:29.213Z,5.50
2019-04-16T15:31:32.994Z,5.33
2019-04-16T15:34:11.626Z,5.40
2019-04-16T15:36:57.094Z,5.00
2019-04-16T15:39:36.410Z,5.47
2019-04-16T15:42:48.056Z,5.23
2019-04-16T15:45:18.697Z,5.20
2019-04-16T15:48:14.877Z,5.30
2019-04-16T15:51:02.413Z,5.17
2019-04-16T15:53:54.059Z,5.00
2019-04-16T15:56:31.174Z,5.40
2019-04-16T15:59:06.802Z,5.03
2019-04-16T16:02:01.814Z,5.00
2019-04-16T16:04:42.248Z,4.73
2019-04-16T16:07:14.952Z,5.03
2019-04-16T16:10:02.916Z,4.50
2019-04-16T16:12:33.522Z,4.67
2019-04-16T16:15:07.623Z,4.80
2019-04-16T16:17:35.161Z,5.10
2019-04-16T16:20:09.614Z,4.37
2019-04-16T16:22:37.253Z,4.67
2019-04-16T16:25:08.097Z,4.87
2019-04-16T16:27:41.779Z,4.60
2019-04-16T16:30:14.433Z,4.80
2019-04-16T16:32:42.839Z,4.97
2019-04-16T16:35:16.733Z,4.40
2019-04-16T16:37:44.175Z,4.70
2019-04-16T16:40:15.222Z,4.30
2019-04-16T16:42:46.744Z,4.40
2019-04-16T16:45:16.647Z,4.47
2019-04-16T16:47:46.410Z,4.47
2019-04-16T16:50:17.239Z,4.43
2019-04-16T16:53:04.106Z,4.67
2019-04-16T16:55:38.531Z,4.03
2019-04-16T16:58:25.562Z,4.50
2019-04-16T17:01:14.076Z,4.73
2019-04-16T17:04:03.450Z,4.73
2019-04-16T17:06:34.062Z,4.10
2019-04-16T17:09:05.322Z,4.50
2019-04-16T17:11:35.131Z,4.30
2019-04-16T17:14:06.176Z,4.70
2019-04-16T17:16:36.214Z,4.13
2019-04-16T17:19:06.049Z,4.43
2019-04-16T17:21:35.834Z,3.90
2019-04-16T17:24:05.626Z,4.60
2019-04-16T17:26:35.746Z,4.20
2019-04-16T17:29:05.578Z,3.93
2019-04-16T17:31:36.120Z,4.00
2019-04-16T17:34:07.831Z,4.23
2019-04-16T17:36:37.582Z,4.10
2019-04-16T17:39:10.415Z,4.00
2019-04-16T17:41:48.335Z,3.97
2019-04-16T17:44:51.127Z,4.30
2019-04-16T17:47:32.582Z,4.27
2019-04-16T17:50:06.587Z,4.10
2019-04-16T17:53:01.329Z,3.70
2019-04-16T17:56:02.262Z,3.90
2019-04-16T17:58:36.604Z,3.87
2019-04-16T18:01:40.353Z,4.27
2019-04-16T18:04:29.748Z,3.90
2019-04-16T18:07:13.806Z,4.20
2019-04-16T18:09:50.703Z,3.70
2019-04-16T18:12:34.556Z,4.17
2019-04-16T18:15:17.878Z,3.67
2019-04-16T18:18:07.752Z,4.10
2019-04-16T18:20:59.786Z,3.53
2019-04-16T18:23:37.090Z,3.70
2019-04-16T18:26:25.427Z,3.60
2019-04-16T18:29:10.609Z,4.50
2019-04-16T18:31:45.607Z,3.70
2019-04-16T18:34:28.058Z,3.97
2019-04-16T18:37:16.906Z,3.90
2019-04-16T18:39:55.744Z,3.90
2019-04-16T18:42:33.730Z,3.80
2019-04-16T18:45:13.816Z,3.80
2019-04-16T18:48:01.389Z,3.53
2019-04-16T18:50:26.064Z,4.20
2019-04-16T18:52:54.142Z,3.83
2019-04-16T18:55:23.962Z,3.80
2019-04-16T18:57:54.217Z,3.87
2019-04-16T19:00:43.622Z,3.63
2019-04-16T19:03:15.112Z,3.90
2019-04-16T19:05:44.835Z,3.93
2019-04-16T19:08:15.160Z,4.10
2019-04-16T19:10:45.284Z,3.87
2019-04-16T19:13:15.134Z,3.53
2019-04-16T19:15:44.914Z,4.27
2019-04-16T19:18:19.492Z,3.67
2019-04-16T19:20:51.409Z,3.33
2019-04-16T19:23:21.516Z,3.63
2019-04-16T19:25:51.773Z,3.90
2019-04-16T19:28:23.186Z,3.33
2019-04-16T19:30:53.035Z,3.47
2019-04-16T19:33:24.128Z,3.53
2019-04-16T19:35:54.271Z,3.40
2019-04-16T19:38:24.106Z,3.17
2019-04-16T19:40:54.027Z,3.53
2019-04-16T19:43:23.882Z,3.43
2019-04-16T19:45:53.891Z,3.57
2019-04-16T19:48:35.355Z,3.30
2019-04-16T19:50:56.583Z,3.27
2019-04-16T19:53:27.830Z,3.73
2019-04-16T19:55:57.639Z,4.00
2019-04-16T19:58:27.524Z,3.40
2019-04-16T20:00:59.065Z,3.13
2019-04-16T20:03:30.517Z,3.20
2019-04-16T20:06:00.350Z,3.50
2019-04-16T20:08:34.361Z,3.33
2019-04-16T20:11:02.772Z,2.87
2019-04-16T20:13:32.527Z,3.27
2019-04-16T20:16:02.446Z,3.13
2019-04-16T20:18:32.334Z,3.03
2019-04-16T20:21:02.332Z,3.30
2019-04-16T20:23:32.130Z,3.00
2019-04-16T20:26:01.918Z,3.27
2019-04-16T20:28:31.703Z,3.00
2019-04-16T20:31:04.094Z,3.10
2019-04-16T20:33:33.634Z,3.40
2019-04-16T20:36:04.334Z,3.20
2019-04-16T20:38:34.362Z,3.63
2019-04-16T20:41:04.119Z,3.00
2019-04-16T20:43:34.930Z,3.00
2019-04-16T20:46:06.170Z,3.00
2019-04-16T20:48:35.970Z,2.93
2019-04-16T20:51:05.794Z,2.87
2019-04-16T20:53:38.088Z,3.00
2019-04-16T20:56:10.525Z,3.23
2019-04-16T20:58:38.782Z,2.77
2019-04-16T21:01:08.605Z,2.90
2019-04-16T21:03:38.359Z,2.90
2019-04-16T21:06:09.587Z,3.07
2019-04-16T21:08:39.671Z,2.97
2019-04-16T21:11:09.793Z,2.77
2019-04-16T21:13:39.667Z,2.80
2019-04-16T21:16:09.422Z,2.87
2019-04-16T21:18:39.184Z,3.13
2019-04-16T21:21:08.978Z,2.77
2019-04-16T21:23:38.738Z,2.70
2019-04-16T21:26:08.813Z,2.90
2019-04-16T21:28:44.146Z,3.00
2019-04-16T21:31:19.441Z,2.67
2019-04-16T21:33:55.242Z,2.50
2019-04-16T21:36:37.103Z,3.07
2019-04-16T21:39:10.871Z,3.10
2019-04-16T21:41:40.635Z,2.93
2019-04-16T21:44:13.008Z,3.00
2019-04-16T21:46:43.142Z,2.80
2019-04-16T21:49:12.899Z,2.87
2019-04-16T21:52:00.349Z,2.80
2019-04-16T21:54:30.535Z,2.67
2019-04-16T21:57:01.337Z,2.57
2019-04-16T21:59:31.090Z,2.70
2019-04-16T22:02:05.363Z,2.73
2019-04-16T22:04:34.379Z,2.47
2019-04-16T22:07:07.405Z,2.40
2019-04-16T22:09:35.982Z,2.50
2019-04-16T22:12:05.946Z,2.40
2019-04-16T22:14:35.702Z,2.70
2019-04-16T22:17:05.504Z,3.00
2019-04-16T22:19:35.587Z,2.40
2019-04-16T22:22:05.841Z,2.47
2019-04-16T22:24:36.442Z,2.80
2019-04-16T22:27:07.943Z,2.53
2019-04-16T22:29:37.694Z,2.43
2019-04-16T22:32:08.396Z,2.90
2019-04-16T22:34:39.585Z,2.70
2019-04-16T22:37:09.330Z,2.50
2019-04-16T22:40:00.415Z,2.37
2019-04-16T22:42:39.160Z,2.37
2019-04-16T22:45:20.954Z,2.53
2019-04-16T22:47:51.473Z,2.63
2019-04-16T22:50:22.638Z,2.43
2019-04-16T22:52:52.396Z,2.50
2019-04-16T22:55:25.014Z,2.20
2019-04-16T22:57:53.647Z,2.13
2019-04-16T23:00:35.971Z,2.07
2019-04-16T23:03:06.395Z,2.20
2019-04-16T23:05:36.142Z,2.40
2019-04-16T23:08:08.801Z,2.30
2019-04-16T23:10:37.918Z,2.30
2019-04-16T23:13:07.654Z,2.40
2019-04-16T23:15:38.437Z,2.57
2019-04-16T23:18:08.386Z,2.30
2019-04-16T23:20:40.008Z,2.30
2019-04-16T23:23:09.778Z,2.30
2019-04-16T23:25:39.834Z,2.40
2019-04-16T23:28:11.474Z,2.50
2019-04-16T23:30:41.211Z,2.30
2019-04-16T23:33:11.514Z,2.20
2019-04-16T23:35:44.417Z,2.10
2019-04-16T23:38:13.927Z,1.70
2019-04-16T23:40:44.192Z,2.20
2019-04-16T23:43:23.119Z,2.10
2019-04-16T23:46:10.858Z,2.07
2019-04-16T23:48:52.374Z,2.03
2019-04-16T23:51:29.046Z,2.20
2019-04-16T23:54:11.750Z,1.70
2019-04-16T23:56:45.086Z,2.40
2019-04-16T23:59:19.209Z,2.13
